Weather observations for the past three days for
Webster City Municipal Airport
Metric (Imperial)
Date Time (cdt) Wind (kph) Vis. (km) Weather Sky Cond. Temperature (ºC) Relative Humidity Wind Chill (°C) Heat Index (°C) Pressure Precipitation (cm)
Air Dwpt 6 hour altimeter (cm) sea level (mb) 1 hr 3 hr 6 hr
Max. Min.
09 07:55 NW 24 16.09 Fair CLR 15 0 36% 75.49 0.0
09 07:35 NW 24 G 44 16.09 Fair CLR 12 0 44% 75.49 0.0
09 07:15 SW 17 16.09 Fair CLR 10 0 50% 8 75.36 0.0
09 06:55 SW 15 16.09 Fair CLR 7 1 66% 5 75.36 0.0
09 06:35 SW 17 16.09 Fair CLR 6 0 66% 3 75.34 0.0
09 06:15 SW 19 16.09 Fair CLR 5 -1 66% 2 75.31 0.0
09 05:55 SW 17 16.09 Fair CLR 5 -1 66% 2 75.31 0.0
09 05:35 SW 17 16.09 Fair CLR 6 -1 61% 3 75.31 0.0
09 05:15 SW 15 16.09 Fair CLR 6 -1 61% 3 75.34 0.0
09 04:55 SW 15 16.09 Fair CLR 6 -1 61% 3 75.34 0.0
09 04:35 SW 15 16.09 Fair CLR 6 -1 61% 3 75.31 0.0
09 04:15 SW 15 16.09 Fair CLR 7 -1 57% 5 75.34 0.0
09 03:55 W 17 16.09 Fair CLR 6 -2 57% 3 75.34 0.0
09 03:35 W 17 16.09 Fair CLR 7 -2 53% 4 75.34 0.0
09 02:55 W 15 16.09 Fair CLR 10 -1 47% 8 75.36 0.0
09 02:35 NW 19 16.09 Fair CLR 9 -1 50% 7 75.36 0.0
09 02:15 W 11 16.09 Fair CLR 8 -2 50% 6 75.34 0.0
09 01:55 W 7 16.09 Fair CLR 10 -2 43% 9 75.36 0.0
09 01:35 NW 6 16.09 Fair CLR 10 -2 43% 75.36 0.0
09 01:15 NW 11 16.09 Fair CLR 11 -2 41% 75.36 0.0
09 00:55 NW 11 16.09 Fair CLR 12 -2 38% 75.39 0.0
09 00:35 NW 15 16.09 Partly Cloudy SCT110 13 -1 38% 75.36 0.0
09 00:15 NW 15 16.09 Mostly Cloudy BKN110 14 0 39% 75.36 0.0
08 23:55 NW 15 16.09 Mostly Cloudy BKN110 14 0 39% 75.36 0.0
08 23:35 NW 17 16.09 Fair CLR 14 0 39% 75.34 0.0
08 23:15 NW 19 16.09 Mostly Cloudy FEW075 FEW090 BKN110 16 0 34% 75.34 0.0
08 22:55 NW 20 16.09 Mostly Cloudy BKN110 17 0 32% 75.31 0.0
08 22:35 NW 15 16.09 Partly Cloudy SCT110 17 0 32% 75.31 0.0
08 22:15 NW 26 16.09 A Few Clouds FEW100 FEW120 17 -1 30% 75.31 0.0
08 21:55 NW 19 16.09 A Few Clouds FEW120 16 -1 31% 75.29 0.0
08 21:35 W 13 16.09 Fair CLR 16 0 34% 75.26 0.0
08 21:15 SW 13 16.09 Fair CLR 16 0 34% 75.23 0.0
08 20:55 SW 9 16.09 A Few Clouds FEW110 20 1 28% 75.21 0.0
08 20:35 SW 7 16.09 Mostly Cloudy BKN110 21 0 25% 75.21 0.0
08 20:15 Calm 16.09 Overcast OVC110 21 1 27% 75.21 0.0
08 19:35 SW 30 16.09 Mostly Cloudy BKN110 23 0 22% 75.18 0.0
08 19:15 S 11 16.09 Partly Cloudy SCT100 SCT120 22 0 23% 75.18 0.0
08 18:55 SW 17 G 44 16.09 A Few Clouds FEW110 22 0 23% 75.21 0.0
08 18:35 W 20 16.09 A Few Clouds FEW110 24 -1 19% 24 75.21 0.0
08 18:15 W 26 16.09 A Few Clouds FEW120 24 -1 19% 24 75.23 0.0
08 17:55 W 19 16.09 A Few Clouds FEW120 24 -2 18% 24 75.23 0.0
08 17:15 W 20 G 33 16.09 A Few Clouds FEW110 24 -3 16% 24 75.26 0.0
08 16:55 W 28 16.09 A Few Clouds FEW110 24 -3 16% 24 75.29 0.0
08 16:35 W 19 G 39 16.09 A Few Clouds FEW120 24 -3 16% 24 75.29 0.0
08 16:15 W 24 G 35 16.09 Fair CLR 25 -3 15% 25 75.31 0.0
08 15:55 W 28 G 43 16.09 Fair CLR 25 -3 15% 25 75.31 0.0
08 15:35 W 28 G 41 16.09 A Few Clouds FEW110 24 -3 16% 24 75.34 0.0
08 15:15 W 26 16.09 Partly Cloudy SCT110 25 -2 17% 25 75.36 0.0
08 14:55 Vrbl 7 G 31 16.09 A Few Clouds FEW110 23 -3 17% 75.39 0.0
08 14:35 NW 28 16.09 Fair CLR 23 -2 19% 75.41 0.0
08 14:15 NW 19 G 33 16.09 Fair CLR 23 -3 17% 75.44 0.0
08 13:55 Calm 16.09 Fair CLR 22 -3 19% 75.46 0.0
08 13:35 NW 20 16.09 Fair CLR 22 -2 20% 75.49 0.0
08 13:15 W 22 11.27 Fair CLR 22 -3 19% 75.51 0.0
08 12:55 NW 19 14.48 Fair CLR 21 -4 18% 75.51 0.0
08 12:35 Vrbl 7 G 31 16.09 Fair CLR 21 -5 17% 75.54 0.0
08 12:15 W 13 16.09 Fair CLR 21 -5 17% 75.57 0.0
08 11:55 Vrbl 11 G 24 16.09 Fair CLR 20 -5 18% 75.59 0.0
08 11:35 N 11 G 30 16.09 Fair CLR 20 -5 18% 75.59 0.0
08 11:15 N 15 G 33 16.09 Fair CLR 20 -4 20% 75.62 0.0
08 10:55 SW 19 G 31 16.09 Fair CLR 20 -2 23% 75.62 0.0
08 10:35 SW 11 G 24 16.09 Fair CLR 19 -2 24% 75.64 0.0
08 10:15 SW 19 16.09 Fair CLR 19 -1 26% 75.64 0.0
08 09:55 SW 15 16.09 Fair CLR 17 0 32% 75.67 0.0
08 09:35 SW 15 16.09 Fair CLR 16 0 34% 75.67 0.0
08 09:15 S 17 16.09 Fair CLR 15 -1 34% 75.67 0.0
08 08:55 S 15 16.09 Fair CLR 14 -1 36% 75.69 0.0
08 08:15 S 17 16.09 Fair CLR 13 -2 36% 75.69 0.0
08 07:35 Calm 16.09 Fair CLR 8 -1 53% 75.69 0.0
08 07:15 Calm 16.09 Fair CLR 6 -3 53% 75.67 0.0
08 06:55 Calm 16.09 Fair CLR 4 -3 61% 75.67 0.0
08 06:35 S 9 16.09 Fair CLR 3 -3 65% 1 75.67 0.0
08 06:15 S 9 16.09 Fair CLR 4 -4 56% 2 75.69 0.0
08 05:55 Calm 16.09 Fair CLR 2 -4 65% 75.69 0.0
08 05:35 S 7 16.09 Fair CLR 4 -4 56% 2 75.69 0.0
08 05:15 S 11 16.09 Fair CLR 4 -4 56% 2 75.69 0.0
08 04:55 Calm 16.09 Fair CLR 4 -4 56% 75.69 0.0
08 04:35 Calm 16.09 Fair CLR 5 -4 53% 75.69 0.0
08 04:15 SE 7 16.09 Fair CLR 5 -4 53% 4 75.69 0.0
08 03:55 SE 7 16.09 Fair CLR 3 -4 60% 1 75.69 0.0
08 03:35 Calm 16.09 Fair CLR 4 -4 56% 75.69 0.0
08 03:15 S 13 16.09 Fair CLR 6 -4 49% 4 75.69 0.0
08 02:35 S 13 16.09 Fair CLR 6 -4 49% 4 75.69 0.0
08 02:15 S 11 16.09 Fair CLR 6 -4 49% 4 75.72 0.0
08 01:55 S 9 16.09 Fair CLR 7 -4 46% 5 75.72 0.0
08 01:35 SE 15 16.09 Fair CLR 7 -4 46% 5 75.72 0.0
08 01:15 SE 15 16.09 Fair CLR 7 -4 46% 5 75.72 0.0
08 00:55 SE 15 16.09 Fair CLR 7 -5 43% 5 75.74 0.0
08 00:35 SE 13 16.09 Fair CLR 8 -5 40% 6 75.74 0.0
08 00:15 SE 13 16.09 Fair CLR 8 -5 40% 6 75.74 0.0
07 23:55 SE 11 16.09 Fair CLR 9 -5 37% 8 75.77 0.0
07 23:35 E 11 16.09 Fair CLR 9 -5 37% 8 75.77 0.0
07 23:15 E 9 16.09 Fair CLR 9 -4 40% 8 75.77 0.0
07 22:55 E 9 16.09 Fair CLR 9 -5 37% 8 75.77 0.0
07 22:35 E 7 16.09 Fair CLR 11 -5 32% 75.77 0.0
07 21:55 N 9 16.09 Fair CLR 11 -6 30% 75.74 0.0
07 21:35 N 7 16.09 Fair CLR 12 -6 28% 75.74 0.0
07 21:15 N 6 16.09 Fair CLR 12 -6 28% 75.72 0.0
07 20:55 Calm 16.09 Fair CLR 13 -6 26% 75.69 0.0
07 20:35 N 7 16.09 Fair CLR 13 -6 26% 75.67 0.0
07 20:15 N 15 16.09 Fair CLR 14 -5 27% 75.64 0.0
07 19:55 NE 11 16.09 Fair CLR 16 -5 23% 75.64 0.0
07 19:35 N 15 16.09 Fair CLR 17 -5 22% 75.64 0.0
07 19:15 NW 6 16.09 Fair CLR 18 -7 18% 75.64 0.0
07 18:55 NW 19 16.09 Fair CLR 18 -6 19% 75.64 0.0
07 18:35 Vrbl 7 G 26 16.09 Fair CLR 19 -6 18% 75.62 0.0
07 18:15 NW 19 16.09 Fair CLR 19 -6 18% 75.62 0.0
07 17:55 NW 11 G 28 16.09 Fair CLR 19 -6 18% 75.64 0.0
07 17:35 NW 9 G 28 16.09 Fair CLR 19 -6 18% 75.64 0.0
07 17:15 W 11 G 26 16.09 Fair CLR 19 -6 18% 75.64 0.0
07 16:55 NW 15 G 35 16.09 Fair CLR 19 -6 18% 75.64 0.0
07 16:35 Vrbl 11 G 30 16.09 Fair CLR 19 -5 19% 75.64 0.0
07 16:15 NW 15 16.09 Fair CLR 19 -5 19% 75.67 0.0
07 15:55 W 20 G 35 16.09 A Few Clouds FEW095 19 -5 19% 75.67 0.0
07 15:35 W 24 G 37 16.09 Partly Cloudy SCT095 19 -5 19% 75.69 0.0
07 15:15 W 28 16.09 Fair CLR 19 -5 19% 75.72 0.0
07 14:35 W 19 G 31 16.09 Fair CLR 18 -5 21% 75.74 0.0
07 14:15 NW 17 16.09 Fair CLR 18 -4 22% 75.74 0.0
07 13:55 W 22 16.09 Fair CLR 18 -5 21% 75.74 0.0
07 13:35 W 24 G 37 16.09 Fair CLR 18 -5 21% 75.74 0.0
07 13:15 NW 13 16.09 Fair CLR 16 -3 27% 75.77 0.0
07 12:55 NW 17 16.09 A Few Clouds FEW100 17 -5 22% 75.77 0.0
07 12:15 W 15 16.09 Fair CLR 16 -3 27% 75.79 0.0
07 11:55 W 22 G 41 16.09 Fair CLR 16 -3 27% 75.82 0.0
07 11:35 NW 13 16.09 Fair CLR 15 -3 29% 75.82 0.0
07 10:55 W 13 16.09 Fair CLR 15 -1 34% 75.82 0.0
07 10:35 NW 9 G 22 16.09 Fair CLR 14 -2 33% 75.82 0.0
07 10:15 Vrbl 11 G 26 16.09 Fair CLR 14 -2 33% 75.82 0.0
07 09:55 NW 15 G 26 16.09 Fair CLR 13 -2 36% 75.84 0.0
07 09:35 NW 20 16.09 Fair CLR 13 -1 38% 75.84 0.0
07 09:15 NW 19 16.09 A Few Clouds FEW100 13 -1 38% 75.84 0.0
07 08:55 SW 19 16.09 A Few Clouds FEW100 11 -1 44% 75.82 0.0
07 08:35 SW 22 G 31 16.09 A Few Clouds FEW110 10 -2 43% 7 75.82 0.0
07 08:15 SW 30 16.09 A Few Clouds FEW110 10 -2 43% 7 75.82 0.0
07 07:55 SW 24 16.09 A Few Clouds FEW090 10 -3 40% 7 75.84 0.0
07 07:35 SW 13 16.09 A Few Clouds FEW080 FEW095 9 -3 43% 7 75.79 0.0
07 07:15 SW 17 16.09 Fair CLR 9 -3 43% 7 75.82 0.0
07 06:55 S 13 16.09 Fair CLR 7 -2 53% 5 75.82 0.0
07 06:35 S 17 16.09 Fair CLR 5 -3 57% 2 75.82 0.0
07 05:55 SW 17 16.09 A Few Clouds FEW085 5 -4 53% 2 75.82 0.0
07 05:35 S 13 16.09 Mostly Cloudy BKN085 4 -3 61% 1 75.82 0.0
07 05:15 SW 17 16.09 Overcast OVC085 5 -3 57% 2 75.84 0.0
07 04:55 SW 13 16.09 Overcast FEW080 OVC095 5 -4 53% 2 75.87 0.0
07 04:35 S 15 16.09 Overcast OVC095 5 -4 53% 2 75.87 0.0
07 04:15 S 13 16.09 Overcast SCT075 BKN090 OVC120 6 -4 49% 4 75.9 0.0
07 03:55 Calm 16.09 Overcast OVC075 5 -3 57% 75.92 0.0
07 03:35 S 15 16.09 Overcast BKN080 OVC085 5 -3 57% 2 75.95 0.0
07 03:15 S 15 16.09 Overcast OVC075 6 -3 53% 3 75.97 0.0
07 02:55 SE 13 16.09 Overcast BKN075 OVC090 6 -3 53% 4 75.97 0.0
07 02:35 E 7 16.09 Overcast FEW065 OVC085 5 -3 57% 4 76.02 0.0
07 02:15 E 11 16.09 Overcast OVC085 5 -3 57% 3 76.02 0.0
07 01:55 SE 11 16.09 Overcast FEW070 BKN085 OVC100 5 -3 57% 3 76.02 0.0
07 01:35 SE 7 16.09 Overcast FEW070 OVC095 5 -3 57% 4 76.05 0.0
07 01:15 E 7 16.09 Overcast OVC095 5 -2 61% 4 76.05 0.0
07 00:55 N 9 16.09 Overcast OVC095 6 -4 49% 4 76.05 0.0
07 00:35 S 11 16.09 Overcast OVC095 6 -4 49% 4 76.05 0.0
07 00:15 S 13 16.09 Overcast OVC095 5 -5 49% 2 76.05 0.0
06 23:35 S 15 16.09 Overcast OVC090 6 -5 46% 3 76.07 0.0
06 23:15 S 15 16.09 Overcast OVC090 6 -5 46% 3 76.07 0.0
06 22:55 S 13 16.09 Mostly Cloudy FEW080 BKN095 6 -5 46% 4 76.1 0.0
06 22:35 S 13 16.09 Mostly Cloudy BKN090 6 -6 42% 4 76.1 0.0
06 22:15 S 7 16.09 Mostly Cloudy BKN090 7 -6 39% 6 76.12 0.0
06 21:55 SW 6 16.09 Mostly Cloudy BKN090 6 -6 42% 76.12 0.0
06 21:35 SW 6 16.09 Overcast OVC080 8 -6 37% 76.12 0.0
06 20:55 NW 7 16.09 A Few Clouds FEW080 10 -6 32% 9 76.1 0.0
06 20:35 W 9 16.09 Partly Cloudy FEW075 SCT090 8 -7 34% 7 76.1 0.0
06 20:15 NW 11 16.09 Mostly Cloudy FEW075 BKN085 10 -7 30% 9 76.1 0.0
06 19:55 W 15 16.09 Partly Cloudy SCT085 11 -7 28% 76.1 0.0
06 19:35 NW 22 16.09 Overcast OVC080 12 -7 26% 76.1 0.0
06 19:15 NW 15 G 26 16.09 Overcast OVC080 12 -7 26% 76.12 0.0
06 18:55 NW 20 16.09 Overcast OVC080 12 -7 26% 76.12 0.0
06 18:35 NW 17 G 37 16.09 Mostly Cloudy BKN085 12 -7 26% 76.12 0.0
06 18:15 W 30 16.09 Mostly Cloudy BKN080 BKN090 13 -7 24% 76.15 0.0
06 17:55 NW 24 G 33 16.09 Partly Cloudy SCT080 13 -7 24% 76.15 0.0
06 17:35 NW 30 16.09 Partly Cloudy SCT080 13 -7 24% 76.15 0.0
06 17:15 NW 26 G 44 16.09 Partly Cloudy SCT075 13 -7 24% 76.15 0.0
06 16:55 NW 37 G 46 16.09 Partly Cloudy and Breezy SCT075 14 -7 23% 76.15 0.0
06 16:35 NW 31 16.09 Partly Cloudy SCT080 13 -7 24% 76.17 0.0
06 16:15 NW 44 G 56 16.09 Partly Cloudy and Windy SCT075 13 -6 26% 76.17 0.0
06 15:55 W 28 16.09 Partly Cloudy SCT075 12 -7 26% 76.17 0.0
06 15:35 NW 35 G 44 16.09 A Few Clouds and Breezy FEW075 12 -7 26% 76.23 0.0
06 15:15 NW 26 G 52 16.09 Partly Cloudy SCT070 12 -7 26% 76.23 0.0
06 14:55 NW 31 G 43 16.09 Partly Cloudy SCT070 SCT080 12 -7 26% 76.23 0.0
06 14:35 NW 35 G 50 16.09 Mostly Cloudy and Breezy BKN070 11 -7 28% 76.25 0.0
06 14:15 NW 26 G 43 16.09 Mostly Cloudy BKN070 BKN075 11 -6 30% 76.28 0.0
06 13:55 NW 28 G 39 16.09 Overcast SCT065 OVC075 11 -6 30% 76.28 0.0
06 13:35 W 26 G 43 16.09 Overcast BKN065 OVC075 11 -6 30% 76.28 0.0
06 13:15 NW 24 G 44 16.09 Overcast SCT065 OVC075 10 -6 32% 7 76.3 0.0
06 12:55 W 33 16.09 Overcast and Breezy BKN065 OVC075 10 -6 32% 7 76.3 0.0
06 12:35 NW 31 16.09 Overcast BKN060 OVC075 10 -6 32% 7 76.3 0.0
06 12:15 NW 28 16.09 Overcast BKN065 OVC075 10 -5 35% 7 76.3 0.0
06 11:55 NW 19 G 31 16.09 Overcast BKN060 OVC070 9 -5 37% 7 76.3 0.0
06 11:35 NW 20 G 33 16.09 Overcast BKN055 OVC065 9 -5 37% 6 76.33 0.0
06 11:15 W 20 16.09 Overcast BKN055 OVC065 8 -6 37% 5 76.33 0.0
06 10:55 W 20 G 33 16.09 Mostly Cloudy BKN060 9 -6 34% 6 76.3 0.0
06 10:35 W 20 16.09 A Few Clouds FEW055 9 -5 37% 6 76.3 0.0
06 10:15 NW 22 G 31 16.09 Fair CLR 8 -5 40% 5 76.33 0.0
06 09:55 NW 22 G 31 16.09 A Few Clouds FEW070 8 -5 40% 5 76.33 0.0
06 09:35 NW 17 16.09 Mostly Cloudy BKN070 8 -5 40% 6 76.3 0.0
06 09:15 N 15 G 24 16.09 A Few Clouds FEW070 7 -5 43% 5 76.3 0.0
06 08:55 N 15 16.09 A Few Clouds FEW070 7 -5 43% 5 76.28 0.0
06 08:35 NW 17 16.09 A Few Clouds FEW070 7 -5 43% 4 76.28 0.0
06 08:15 NW 13 16.09 Fair CLR 6 -4 49% 4 76.28 0.0
Date Time (cdt) Wind (kph) Vis. (km) Weather Sky Cond. Air Dwpt Max. Min. Relative Humidity Wind Chill (°C) Heat Index (°C) altimeter (cm) sea level (mb) 1 hr 3 hr 6 hr
6 hour
Temperature (ºC) Pressure Precipitation (cm)